createdAt,value
2022-12-12T00:02:08.138Z,100750.75
2022-12-12T00:04:57.503Z,100753.38
2022-12-12T00:07:43.028Z,100748.13
2022-12-12T00:10:28.654Z,100751.47
2022-12-12T00:13:14.258Z,100751.41
2022-12-12T00:15:59.803Z,100758.09
2022-12-12T00:18:45.401Z,100746.88
2022-12-12T00:21:31.170Z,100750.41
2022-12-12T00:24:16.911Z,100765.72
2022-12-12T00:27:02.410Z,100758.97
2022-12-12T00:29:55.444Z,100766.84
2022-12-12T00:32:41.156Z,100772.56
2022-12-12T00:35:26.448Z,100762.31
2022-12-12T00:38:11.773Z,100760.59
2022-12-12T00:40:59.298Z,100753.78
2022-12-12T00:43:44.756Z,100754.09
2022-12-12T00:46:30.235Z,100752.44
2022-12-12T00:49:15.563Z,100749.94
2022-12-12T00:52:00.951Z,100742.25
2022-12-12T00:54:46.370Z,100735.38
2022-12-12T00:57:31.633Z,100738.72
2022-12-12T01:00:17.978Z,100738.72
2022-12-12T01:03:03.368Z,100735.97
2022-12-12T01:05:49.122Z,100735.09
2022-12-12T01:08:35.436Z,100732.69
2022-12-12T01:11:22.164Z,100724.03
2022-12-12T01:14:07.921Z,100727.56
2022-12-12T01:16:53.618Z,100715.59
2022-12-12T01:19:39.070Z,100725.91
2022-12-12T01:22:24.653Z,100729.16
2022-12-12T01:25:12.247Z,100726.66
2022-12-12T01:27:59.292Z,100727.34
2022-12-12T01:30:44.689Z,100725.41
2022-12-12T01:33:30.212Z,100724.31
2022-12-12T01:36:18.396Z,100727.59
2022-12-12T01:39:04.320Z,100728.38
2022-12-12T01:41:49.985Z,100724.84
2022-12-12T01:44:46.437Z,100725.50
2022-12-12T01:47:31.872Z,100722.94
2022-12-12T01:50:17.289Z,100721.28
2022-12-12T01:53:02.877Z,100713.47
2022-12-12T01:55:49.627Z,100715.72
2022-12-12T01:58:35.291Z,100716.69
2022-12-12T02:01:22.275Z,100726.88
2022-12-12T02:04:09.877Z,100723.41
2022-12-12T02:06:56.400Z,100724.31
2022-12-12T02:09:42.299Z,100724.50
2022-12-12T02:12:27.756Z,100728.72
2022-12-12T02:15:14.220Z,100715.94
2022-12-12T02:18:15.939Z,100713.09
2022-12-12T02:21:45.005Z,100708.50
2022-12-12T02:24:53.049Z,100716.13
2022-12-12T02:27:38.340Z,100717.00
2022-12-12T02:30:51.110Z,100720.44
2022-12-12T02:34:10.486Z,100720.78
2022-12-12T02:37:11.367Z,100723.63
2022-12-12T02:40:23.018Z,100715.13
2022-12-12T02:43:36.078Z,100716.97
2022-12-12T02:46:28.337Z,100711.72
2022-12-12T02:49:18.904Z,100714.06
2022-12-12T02:52:05.805Z,100715.47
2022-12-12T02:54:51.269Z,100721.31
2022-12-12T02:57:36.812Z,100722.94
2022-12-12T03:00:23.223Z,100717.75
2022-12-12T03:03:41.520Z,100716.00
2022-12-12T03:06:57.958Z,100711.06
2022-12-12T03:09:56.484Z,100711.34
2022-12-12T03:12:52.238Z,100705.09
2022-12-12T03:16:11.307Z,100704.28
2022-12-12T03:19:08.989Z,100705.03
2022-12-12T03:21:59.041Z,100702.41
2022-12-12T03:24:55.822Z,100696.31
2022-12-12T03:27:45.186Z,100695.38
2022-12-12T03:30:37.730Z,100694.59
2022-12-12T03:33:51.630Z,100685.41
2022-12-12T03:36:47.636Z,100692.16
2022-12-12T03:39:47.443Z,100680.69
2022-12-12T03:42:42.351Z,100681.69
2022-12-12T03:45:43.172Z,100677.47
2022-12-12T03:48:31.682Z,100687.84
2022-12-12T03:51:22.919Z,100684.13
2022-12-12T03:54:48.545Z,100679.75
2022-12-12T03:57:49.227Z,100684.78
2022-12-12T04:00:37.580Z,100685.75
2022-12-12T04:03:35.313Z,100682.22
2022-12-12T04:06:32.306Z,100678.06
2022-12-12T04:09:38.684Z,100682.38
2022-12-12T04:12:58.943Z,100680.69
2022-12-12T04:16:06.647Z,100675.69
2022-12-12T04:19:09.357Z,100680.09
2022-12-12T04:22:18.524Z,100675.44
2022-12-12T04:25:15.714Z,100676.91
2022-12-12T04:28:05.879Z,100672.53
2022-12-12T04:30:51.734Z,100672.22
2022-12-12T04:33:47.843Z,100672.09
2022-12-12T04:36:35.646Z,100668.81
2022-12-12T04:39:21.890Z,100661.28
2022-12-12T04:42:11.558Z,100664.03
2022-12-12T04:45:06.445Z,100659.81
2022-12-12T04:47:55.834Z,100652.13
2022-12-12T04:50:42.850Z,100653.59
2022-12-12T04:53:34.463Z,100660.59
2022-12-12T04:56:26.647Z,100650.50
2022-12-12T04:59:12.950Z,100655.28
2022-12-12T05:02:09.438Z,100652.44
2022-12-12T05:05:17.170Z,100650.25
2022-12-12T05:08:18.428Z,100645.00
2022-12-12T05:11:06.864Z,100644.00
2022-12-12T05:13:52.399Z,100641.13
2022-12-12T05:16:55.929Z,100636.09
2022-12-12T05:19:41.076Z,100645.53
2022-12-12T05:22:26.866Z,100642.91
2022-12-12T05:25:14.159Z,100649.91
2022-12-12T05:27:59.674Z,100643.19
2022-12-12T05:30:45.138Z,100647.28
2022-12-12T05:33:30.916Z,100642.31
2022-12-12T05:36:16.731Z,100644.28
2022-12-12T05:39:02.240Z,100648.66
2022-12-12T05:41:48.402Z,100648.13
2022-12-12T05:44:34.167Z,100640.34
2022-12-12T05:47:19.873Z,100643.94
2022-12-12T05:50:06.843Z,100642.91
2022-12-12T05:52:52.572Z,100645.78
2022-12-12T05:55:39.064Z,100627.59
2022-12-12T05:58:24.551Z,100624.22
2022-12-12T06:01:10.613Z,100622.09
2022-12-12T06:03:56.312Z,100623.31
2022-12-12T06:06:41.973Z,100623.91
2022-12-12T06:09:27.182Z,100614.88
2022-12-12T06:12:12.909Z,100620.84
2022-12-12T06:14:58.420Z,100618.31
2022-12-12T06:17:43.773Z,100620.94
2022-12-12T06:20:30.616Z,100616.84
2022-12-12T06:23:15.987Z,100621.28
2022-12-12T06:26:01.531Z,100618.94
2022-12-12T06:28:47.629Z,100612.75
2022-12-12T06:31:34.104Z,100610.78
2022-12-12T06:34:19.476Z,100610.50
2022-12-12T06:37:07.149Z,100610.22
2022-12-12T06:39:52.559Z,100601.59
2022-12-12T06:42:40.795Z,100601.78
2022-12-12T06:45:28.868Z,100602.91
2022-12-12T06:48:14.215Z,100601.59
2022-12-12T06:51:05.012Z,100605.69
2022-12-12T06:53:51.289Z,100604.13
2022-12-12T06:56:36.531Z,100604.00
2022-12-12T06:59:22.011Z,100593.56
2022-12-12T07:02:09.460Z,100603.34
2022-12-12T07:04:55.515Z,100599.41
2022-12-12T07:07:41.421Z,100610.69
2022-12-12T07:10:27.067Z,100607.56
2022-12-12T07:13:12.611Z,100601.66
2022-12-12T07:15:58.335Z,100598.13
2022-12-12T07:18:44.139Z,100600.81
2022-12-12T07:21:30.144Z,100602.66
2022-12-12T07:24:15.861Z,100603.81
2022-12-12T07:27:02.203Z,100604.09
2022-12-12T07:29:47.724Z,100599.75
2022-12-12T07:32:33.247Z,100601.19
2022-12-12T07:35:18.585Z,100610.38
2022-12-12T07:38:05.336Z,100610.03
2022-12-12T07:40:50.885Z,100610.97
2022-12-12T07:43:41.462Z,100613.31
2022-12-12T07:46:28.998Z,100618.50
2022-12-12T07:49:14.702Z,100617.84
2022-12-12T07:52:00.109Z,100615.50
2022-12-12T07:54:45.613Z,100620.03
2022-12-12T07:57:31.504Z,100616.75
2022-12-12T08:00:17.768Z,100609.84
2022-12-12T08:03:03.472Z,100612.28
2022-12-12T08:05:49.314Z,100614.25
2022-12-12T08:08:35.199Z,100618.63
2022-12-12T08:11:22.903Z,100614.59
2022-12-12T08:14:12.935Z,100619.69
2022-12-12T08:16:59.117Z,100615.34
2022-12-12T08:19:44.816Z,100613.53
2022-12-12T08:22:30.221Z,100621.19
2022-12-12T08:25:15.762Z,100621.25
2022-12-12T08:28:01.369Z,100624.69
2022-12-12T08:30:51.167Z,100625.66
2022-12-12T08:33:37.041Z,100623.03
2022-12-12T08:36:25.303Z,100617.22
2022-12-12T08:39:14.215Z,100616.53
2022-12-12T08:42:00.314Z,100619.25
2022-12-12T08:44:46.003Z,100611.72
2022-12-12T08:47:31.407Z,100609.63
2022-12-12T08:50:16.910Z,100609.75
2022-12-12T08:53:02.405Z,100611.50
2022-12-12T08:55:48.032Z,100613.59
2022-12-12T08:58:33.691Z,100616.97
2022-12-12T09:01:22.128Z,100617.72
2022-12-12T09:04:07.809Z,100613.31
2022-12-12T09:06:53.506Z,100625.66
2022-12-12T09:09:39.511Z,100620.66
2022-12-12T09:12:24.988Z,100609.44
2022-12-12T09:15:10.864Z,100614.41
2022-12-12T09:17:56.534Z,100616.31
2022-12-12T09:20:41.969Z,100617.13
2022-12-12T09:23:28.512Z,100617.13
2022-12-12T09:26:14.046Z,100619.41
2022-12-12T09:28:59.845Z,100612.31
2022-12-12T09:31:45.155Z,100612.59
2022-12-12T09:34:30.561Z,100610.84
2022-12-12T09:37:16.005Z,100613.75
2022-12-12T09:40:01.830Z,100617.31
2022-12-12T09:42:51.453Z,100613.41
2022-12-12T09:45:38.023Z,100599.06
2022-12-12T09:48:43.191Z,100605.38
2022-12-12T09:51:29.066Z,100604.84
2022-12-12T09:54:18.224Z,100603.56
2022-12-12T09:57:18.308Z,100611.75
2022-12-12T10:00:12.565Z,100607.91
2022-12-12T10:03:13.396Z,100614.91
2022-12-12T10:06:36.394Z,100606.59
2022-12-12T10:09:40.131Z,100608.09
2022-12-12T10:12:26.411Z,100608.97
2022-12-12T10:15:29.875Z,100603.84
2022-12-12T10:18:28.922Z,100604.66
2022-12-12T10:21:27.125Z,100613.03
2022-12-12T10:24:36.152Z,100606.19
2022-12-12T10:27:23.341Z,100601.13
2022-12-12T10:30:18.491Z,100612.41
2022-12-12T10:33:06.966Z,100605.53
2022-12-12T10:36:07.566Z,100604.16
2022-12-12T10:39:11.587Z,100608.66
2022-12-12T10:42:26.230Z,100603.84
2022-12-12T10:45:17.755Z,100603.97
2022-12-12T10:48:03.683Z,100610.03
2022-12-12T10:51:01.014Z,100608.16
2022-12-12T10:53:46.381Z,100607.88
2022-12-12T10:56:31.807Z,100593.66
2022-12-12T10:59:22.307Z,100591.91
2022-12-12T11:02:36.905Z,100590.66
2022-12-12T11:05:27.303Z,100597.19
2022-12-12T11:08:31.472Z,100596.91
2022-12-12T11:11:25.568Z,100585.28
2022-12-12T11:14:33.873Z,100589.84
2022-12-12T11:17:25.571Z,100581.84
2022-12-12T11:20:18.527Z,100582.03
2022-12-12T11:23:04.063Z,100580.63
2022-12-12T11:25:58.880Z,100572.88
2022-12-12T11:28:47.271Z,100568.50
2022-12-12T11:31:35.451Z,100564.31
2022-12-12T11:34:21.926Z,100569.72
2022-12-12T11:37:16.088Z,100563.09
2022-12-12T11:40:02.388Z,100563.25
2022-12-12T11:42:48.072Z,100556.59
2022-12-12T11:45:33.568Z,100548.25
2022-12-12T11:48:35.805Z,100548.53
2022-12-12T11:51:30.282Z,100533.41
2022-12-12T11:54:21.803Z,100531.00
2022-12-12T11:57:30.323Z,100527.66
2022-12-12T12:00:25.068Z,100524.59
2022-12-12T12:03:24.425Z,100534.22
2022-12-12T12:06:34.870Z,100529.13
2022-12-12T12:09:39.586Z,100522.38
2022-12-12T12:12:40.977Z,100520.75
2022-12-12T12:15:41.714Z,100519.09
2022-12-12T12:18:48.104Z,100516.34
2022-12-12T12:21:48.775Z,100516.28
2022-12-12T12:24:49.250Z,100517.91
2022-12-12T12:27:59.052Z,100509.44
2022-12-12T12:30:53.878Z,100520.09
2022-12-12T12:33:54.453Z,100515.16
2022-12-12T12:36:48.992Z,100526.47
2022-12-12T12:39:46.607Z,100531.09
2022-12-12T12:43:03.318Z,100520.16
2022-12-12T12:45:57.863Z,100523.63
2022-12-12T12:48:55.782Z,100521.00
2022-12-12T12:51:50.813Z,100519.44
2022-12-12T12:54:40.822Z,100513.25
2022-12-12T12:57:39.531Z,100512.34
2022-12-12T13:00:28.958Z,100512.19
2022-12-12T13:03:20.285Z,100510.44
2022-12-12T13:06:12.960Z,100514.03
2022-12-12T13:09:07.065Z,100505.66
2022-12-12T13:12:01.592Z,100510.16
2022-12-12T13:15:08.101Z,100509.69
2022-12-12T13:18:05.701Z,100508.94
2022-12-12T13:21:41.247Z,100505.53
2022-12-12T13:24:34.542Z,100503.22
2022-12-12T13:27:46.059Z,100505.75
2022-12-12T13:31:21.266Z,100503.28
2022-12-12T13:34:11.792Z,100501.50
2022-12-12T13:36:58.873Z,100497.94
2022-12-12T13:39:45.093Z,100491.94
2022-12-12T13:42:56.292Z,100498.84
2022-12-12T13:45:46.114Z,100504.84
2022-12-12T13:48:44.553Z,100497.00
2022-12-12T13:51:43.650Z,100486.50
2022-12-12T13:54:32.315Z,100493.16
2022-12-12T13:57:27.006Z,100490.31
2022-12-12T14:00:17.855Z,100494.13
2022-12-12T14:03:23.592Z,100489.47
2022-12-12T14:06:11.776Z,100490.16
2022-12-12T14:08:58.872Z,100503.19
2022-12-12T14:11:44.344Z,100500.78
2022-12-12T14:14:31.843Z,100508.69
2022-12-12T14:17:23.131Z,100513.16
2022-12-12T14:20:23.505Z,100504.78
2022-12-12T14:23:24.183Z,100501.28
2022-12-12T14:26:27.907Z,100496.00
2022-12-12T14:29:16.420Z,100503.03
2022-12-12T14:32:04.757Z,100504.13
2022-12-12T14:35:14.729Z,100503.22
2022-12-12T14:38:21.649Z,100507.44
2022-12-12T14:41:17.229Z,100512.31
2022-12-12T14:44:36.854Z,100519.22
2022-12-12T14:47:16.916Z,100515.13
2022-12-12T14:50:10.795Z,100509.09
2022-12-12T14:52:57.990Z,100509.22
2022-12-12T14:56:12.538Z,100499.06
2022-12-12T14:59:05.080Z,100508.53
2022-12-12T15:01:57.378Z,100501.41
2022-12-12T15:04:49.237Z,100500.47
2022-12-12T15:07:39.054Z,100493.31
2022-12-12T15:10:27.577Z,100495.59
2022-12-12T15:13:21.313Z,100498.66
2022-12-12T15:16:07.265Z,100495.75
2022-12-12T15:18:54.803Z,100497.28
2022-12-12T15:21:40.756Z,100498.72
2022-12-12T15:24:29.513Z,100497.63
2022-12-12T15:27:21.276Z,100507.78
2022-12-12T15:30:32.018Z,100499.00
2022-12-12T15:33:25.753Z,100506.69
2022-12-12T15:36:27.770Z,100503.16
2022-12-12T15:39:15.785Z,100507.47
2022-12-12T15:42:01.848Z,100507.84
2022-12-12T15:44:50.827Z,100507.56
2022-12-12T15:47:36.156Z,100510.13
2022-12-12T15:50:43.683Z,100501.44
2022-12-12T15:53:29.543Z,100509.88
2022-12-12T15:56:24.796Z,100521.69
2022-12-12T15:59:10.473Z,100527.88
2022-12-12T16:01:56.485Z,100518.59
2022-12-12T16:04:54.040Z,100518.66
2022-12-12T16:07:40.842Z,100510.91
2022-12-12T16:10:26.490Z,100522.84
2022-12-12T16:13:18.453Z,100528.69
2022-12-12T16:16:35.127Z,100524.31
2022-12-12T16:19:45.585Z,100534.41
2022-12-12T16:22:49.888Z,100522.28
2022-12-12T16:25:35.147Z,100525.53
2022-12-12T16:28:27.644Z,100519.44
2022-12-12T16:31:16.826Z,100514.00
2022-12-12T16:34:03.576Z,100528.13
2022-12-12T16:36:49.279Z,100531.66
2022-12-12T16:39:34.860Z,100529.22
2022-12-12T16:42:22.091Z,100532.72
2022-12-12T16:45:07.947Z,100530.97
2022-12-12T16:47:53.758Z,100525.03
2022-12-12T16:50:39.324Z,100527.03
2022-12-12T16:53:24.636Z,100539.03
2022-12-12T16:56:12.045Z,100554.66
2022-12-12T16:58:57.479Z,100551.91
2022-12-12T17:01:42.859Z,100556.91
2022-12-12T17:04:28.861Z,100561.34
2022-12-12T17:07:14.738Z,100563.19
2022-12-12T17:10:00.407Z,100565.97
2022-12-12T17:12:46.311Z,100563.53
2022-12-12T17:15:32.502Z,100565.28
2022-12-12T17:18:18.379Z,100574.91
2022-12-12T17:21:04.049Z,100578.28
2022-12-12T17:23:49.715Z,100574.91
2022-12-12T17:26:36.593Z,100572.72
2022-12-12T17:29:22.645Z,100561.53
2022-12-12T17:32:08.531Z,100556.28
2022-12-12T17:34:54.033Z,100563.03
2022-12-12T17:37:39.466Z,100565.69
2022-12-12T17:40:25.488Z,100562.22
2022-12-12T17:43:10.815Z,100562.34
2022-12-12T17:46:06.244Z,100567.53
2022-12-12T17:48:53.179Z,100565.91
2022-12-12T17:51:38.705Z,100578.97
2022-12-12T17:54:23.969Z,100577.47
2022-12-12T17:57:10.077Z,100583.69
2022-12-12T17:59:58.616Z,100582.03
2022-12-12T18:02:44.561Z,100578.75
2022-12-12T18:05:29.804Z,100573.03
2022-12-12T18:08:15.305Z,100577.59
2022-12-12T18:11:01.143Z,100578.72
2022-12-12T18:13:51.108Z,100580.28
2022-12-12T18:16:37.058Z,100579.81
2022-12-12T18:19:25.206Z,100577.31
2022-12-12T18:22:10.815Z,100580.63
2022-12-12T18:24:56.244Z,100585.69
2022-12-12T18:27:41.536Z,100583.13
2022-12-12T18:30:27.042Z,100576.00
2022-12-12T18:33:12.737Z,100573.56
2022-12-12T18:36:06.490Z,100578.50
2022-12-12T18:38:52.470Z,100577.53
2022-12-12T18:41:37.974Z,100585.09
2022-12-12T18:44:23.526Z,100578.28
2022-12-12T18:47:09.502Z,100578.09
2022-12-12T18:49:54.931Z,100580.56
2022-12-12T18:52:40.306Z,100583.06
2022-12-12T18:55:29.972Z,100589.97
2022-12-12T18:58:15.600Z,100590.34
2022-12-12T19:01:15.895Z,100579.88
2022-12-12T19:04:09.034Z,100574.66
2022-12-12T19:06:56.807Z,100572.66
2022-12-12T19:09:45.764Z,100576.84
2022-12-12T19:12:31.272Z,100578.94
2022-12-12T19:15:17.738Z,100579.63
2022-12-12T19:18:03.484Z,100575.41
2022-12-12T19:20:49.977Z,100585.88
2022-12-12T19:23:36.550Z,100581.38
2022-12-12T19:26:28.197Z,100581.19
2022-12-12T19:29:18.932Z,100585.03
2022-12-12T19:32:04.945Z,100587.03
2022-12-12T19:34:50.270Z,100580.16
2022-12-12T19:37:37.247Z,100596.31
2022-12-12T19:40:23.022Z,100599.31
2022-12-12T19:43:08.504Z,100609.53
2022-12-12T19:46:03.163Z,100606.88
2022-12-12T19:48:53.103Z,100613.63
2022-12-12T19:51:39.624Z,100619.06
2022-12-12T19:54:25.288Z,100629.69
2022-12-12T19:57:10.985Z,100625.63
2022-12-12T19:59:56.611Z,100632.91
2022-12-12T20:02:42.008Z,100624.25
2022-12-12T20:05:27.794Z,100629.56
2022-12-12T20:08:13.363Z,100635.63
2022-12-12T20:11:14.710Z,100632.13
2022-12-12T20:14:01.699Z,100638.75
2022-12-12T20:16:47.897Z,100644.53
2022-12-12T20:19:33.657Z,100646.19
2022-12-12T20:22:19.198Z,100633.47
2022-12-12T20:25:04.839Z,100633.75
2022-12-12T20:27:50.535Z,100627.06
2022-12-12T20:30:35.859Z,100628.69
2022-12-12T20:33:21.698Z,100620.19
2022-12-12T20:36:19.049Z,100633.38
2022-12-12T20:39:07.441Z,100632.03
2022-12-12T20:41:54.000Z,100624.59
2022-12-12T20:44:39.703Z,100623.78
2022-12-12T20:47:25.495Z,100617.53
2022-12-12T20:50:11.010Z,100620.91
2022-12-12T20:52:56.428Z,100623.56
2022-12-12T20:55:41.871Z,100622.66
2022-12-12T20:58:27.194Z,100626.13
2022-12-12T21:01:15.069Z,100624.41
2022-12-12T21:04:02.190Z,100620.78
2022-12-12T21:06:49.712Z,100617.22
2022-12-12T21:09:35.682Z,100613.75
2022-12-12T21:12:21.027Z,100614.84
2022-12-12T21:15:07.574Z,100618.44
2022-12-12T21:17:53.388Z,100618.44
2022-12-12T21:20:44.609Z,100628.03
2022-12-12T21:23:30.886Z,100629.91
2022-12-12T21:26:22.601Z,100636.13
2022-12-12T21:29:11.129Z,100641.97
2022-12-12T21:31:56.966Z,100643.75
2022-12-12T21:34:42.346Z,100641.38
2022-12-12T21:37:28.727Z,100639.91
2022-12-12T21:40:14.132Z,100639.28
2022-12-12T21:42:59.473Z,100636.03
2022-12-12T21:45:45.039Z,100627.56
2022-12-12T21:48:30.892Z,100625.91
2022-12-12T21:51:16.809Z,100630.97
2022-12-12T21:54:06.427Z,100628.28
2022-12-12T21:56:53.064Z,100627.31
2022-12-12T21:59:38.713Z,100631.34
2022-12-12T22:02:24.173Z,100631.78
2022-12-12T22:05:09.906Z,100622.78
2022-12-12T22:07:55.550Z,100623.28
2022-12-12T22:10:41.084Z,100622.91
2022-12-12T22:13:26.387Z,100623.22
2022-12-12T22:16:17.550Z,100620.47
2022-12-12T22:19:10.269Z,100619.34
2022-12-12T22:21:55.823Z,100623.25
2022-12-12T22:24:41.767Z,100626.47
2022-12-12T22:27:27.043Z,100634.94
2022-12-12T22:30:12.599Z,100628.16
2022-12-12T22:32:58.351Z,100626.00
2022-12-12T22:35:43.626Z,100632.06
2022-12-12T22:38:29.736Z,100629.03
2022-12-12T22:41:15.973Z,100633.06
2022-12-12T22:44:04.866Z,100631.72
2022-12-12T22:46:52.716Z,100638.03
2022-12-12T22:49:38.101Z,100634.06
2022-12-12T22:52:25.614Z,100630.22
2022-12-12T22:55:11.064Z,100634.03
2022-12-12T22:57:56.346Z,100627.59
2022-12-12T23:00:42.085Z,100633.84
2022-12-12T23:03:28.984Z,100630.50
2022-12-12T23:06:35.064Z,100632.16
2022-12-12T23:09:22.773Z,100638.06
2022-12-12T23:12:08.006Z,100624.34
2022-12-12T23:14:53.190Z,100631.22
2022-12-12T23:17:38.709Z,100635.56
2022-12-12T23:20:24.511Z,100633.13
2022-12-12T23:23:10.206Z,100635.63
2022-12-12T23:25:55.606Z,100625.38
2022-12-12T23:28:41.991Z,100627.94
2022-12-12T23:31:31.303Z,100632.03
2022-12-12T23:34:20.965Z,100626.72
2022-12-12T23:37:06.453Z,100626.47
2022-12-12T23:39:52.146Z,100627.91
2022-12-12T23:42:37.957Z,100617.41
2022-12-12T23:45:23.272Z,100626.69
2022-12-12T23:48:08.827Z,100623.19
2022-12-12T23:50:54.131Z,100622.34
2022-12-12T23:53:39.449Z,100614.44
2022-12-12T23:56:25.821Z,100607.41
2022-12-12T23:59:17.108Z,100607.31
